Terminal Aerodrome Forecast
Issued by NWS

Current Version | Previous Version | Text Only | Print | Product List | Glossary On
Versions: 1 2 3 4 5 6 7 8 9 10 11 12 13 14 15 16 17
618
FTUS44 KTSA 222322
TAFMLC
TAF
KMLC 222322Z 2300/2324 34020G28KT P6SM FEW050
     FM230200 34010G17KT P6SM SKC
     FM230400 33007KT P6SM SKC
     FM231000 VRB03KT 4SM BR SKC
     FM231500 VRB04KT P6SM SKC=

USA.gov is the U.S. government's official web portal to all federal, state and local government web resources and services.